Time;durP1;ratioP1;P1;durP2;ratioP2;P2;SDS_P1;SDS_P2;PMS_P1;PMS_P2;Temp;Humidity;BMP_temperature;BMP_pressure;BME280_temperature;BME280_humidity;BME280_pressure;Samples;Min_cycle;Max_cycle;Signal;HPM_P1;HPM_P2
2021/01/08 00:02:24;;;;;;;1.70;1.50;;;2.80;98.20;;;;;;5007358;28;20493;-76
2021/01/08 00:04:51;;;;;;;1.63;1.40;;;2.80;98.20;;;;;;5006397;28;20481;-78
2021/01/08 00:07:18;;;;;;;1.60;1.40;;;2.80;98.20;;;;;;5008849;28;20589;-78
2021/01/08 00:09:44;;;;;;;1.67;1.50;;;2.80;98.20;;;;;;5006179;28;20488;-77
2021/01/08 00:12:10;;;;;;;1.67;1.50;;;2.80;98.20;;;;;;5004204;28;20499;-78
2021/01/08 00:14:38;;;;;;;1.70;1.60;;;2.70;98.20;;;;;;5009871;28;20509;-78
2021/01/08 00:17:04;;;;;;;1.70;1.60;;;2.70;98.20;;;;;;5011251;28;20971;-78
2021/01/08 00:19:30;;;;;;;1.70;1.50;;;2.70;98.20;;;;;;5014233;28;20475;-78
2021/01/08 00:21:57;;;;;;;1.60;1.40;;;2.70;98.20;;;;;;5013423;28;20971;-79
2021/01/08 00:24:23;;;;;;;1.70;1.50;;;2.70;98.20;;;;;;5010445;28;21015;-78
2021/01/08 00:26:50;;;;;;;1.60;1.40;;;2.70;98.20;;;;;;5011401;28;20901;-79
2021/01/08 00:29:17;;;;;;;1.70;1.50;;;2.70;98.20;;;;;;5010924;28;21027;-78
2021/01/08 00:31:46;;;;;;;1.67;1.40;;;2.60;98.20;;;;;;5008589;28;20468;-76
2021/01/08 00:34:16;;;;;;;1.80;1.70;;;2.60;98.20;;;;;;5010330;28;20539;-78
2021/01/08 00:36:48;;;;;;;1.80;1.70;;;2.60;98.20;;;;;;5009932;28;20504;-78
2021/01/08 00:39:15;;;;;;;1.67;1.40;;;2.60;98.20;;;;;;5004183;28;20457;-78
2021/01/08 00:41:41;;;;;;;1.70;1.50;;;2.60;98.20;;;;;;5009365;28;20973;-77
2021/01/08 00:44:08;;;;;;;1.60;1.40;;;2.60;98.20;;;;;;5010854;28;20499;-77
2021/01/08 00:46:35;;;;;;;1.63;1.50;;;2.60;98.20;;;;;;5008861;28;20457;-76
2021/01/08 00:49:03;;;;;;;1.70;1.50;;;2.60;98.20;;;;;;5007392;28;20485;-77
2021/01/08 00:51:30;;;;;;;1.60;1.50;;;2.60;98.20;;;;;;5010784;28;21009;-77
2021/01/08 00:53:56;;;;;;;1.60;1.40;;;2.60;98.20;;;;;;5011942;28;20472;-78
2021/01/08 00:56:23;;;;;;;1.60;1.40;;;2.60;98.20;;;;;;5008242;28;20460;-77
2021/01/08 00:58:49;;;;;;;2.00;1.80;;;2.60;98.20;;;;;;5011244;28;20511;-77
2021/01/08 01:01:18;;;;;;;1.70;1.50;;;2.60;98.20;;;;;;5011536;28;20456;-78
2021/01/08 01:03:45;;;;;;;1.70;1.57;;;2.60;98.20;;;;;;5008786;28;20469;-79
2021/01/08 01:06:13;;;;;;;1.70;1.60;;;2.60;98.20;;;;;;5005273;28;20848;-77
2021/01/08 01:08:39;;;;;;;1.63;1.40;;;2.60;98.20;;;;;;5010518;28;20485;-78
2021/01/08 01:11:06;;;;;;;1.60;1.40;;;2.60;98.20;;;;;;5010343;28;20464;-78
2021/01/08 01:13:32;;;;;;;1.70;1.50;;;2.60;98.20;;;;;;5010372;28;20506;-78
2021/01/08 01:15:59;;;;;;;1.63;1.50;;;2.60;98.20;;;;;;5006260;28;20519;-77
2021/01/08 01:18:25;;;;;;;1.70;1.57;;;2.60;98.20;;;;;;5011608;28;20507;-79
2021/01/08 01:20:51;;;;;;;1.70;1.47;;;2.60;98.20;;;;;;5019054;28;20492;-78
2021/01/08 01:23:19;;;;;;;1.70;1.50;;;2.60;98.20;;;;;;5013965;28;20464;-79
2021/01/08 01:25:45;;;;;;;1.70;1.40;;;2.60;98.20;;;;;;5012311;28;20994;-76
2021/01/08 01:28:14;;;;;;;1.80;1.70;;;2.60;98.20;;;;;;5011143;28;20547;-77
2021/01/08 01:30:40;;;;;;;1.67;1.50;;;2.60;98.20;;;;;;5014955;28;20879;-77
2021/01/08 01:33:07;;;;;;;1.70;1.50;;;2.60;98.20;;;;;;5010695;28;20496;-78
2021/01/08 01:35:33;;;;;;;1.60;1.40;;;2.60;98.20;;;;;;5015043;28;20492;-79
2021/01/08 01:38:00;;;;;;;1.63;1.40;;;2.60;98.20;;;;;;5013223;28;20847;-78
2021/01/08 01:40:27;;;;;;;1.70;1.50;;;2.60;98.20;;;;;;5012187;28;20485;-77
2021/01/08 01:42:54;;;;;;;1.70;1.60;;;2.60;98.20;;;;;;5009827;28;20460;-78
2021/01/08 01:45:20;;;;;;;1.67;1.40;;;2.60;98.20;;;;;;5015511;28;20488;-78
2021/01/08 01:47:47;;;;;;;1.60;1.40;;;2.60;98.20;;;;;;5018102;28;20950;-77
2021/01/08 01:50:14;;;;;;;1.67;1.40;;;2.60;98.20;;;;;;5023513;28;20547;-77
2021/01/08 01:52:40;;;;;;;1.70;1.60;;;2.60;98.20;;;;;;5013677;28;20460;-78
2021/01/08 01:55:08;;;;;;;3.90;3.67;;;2.50;98.20;;;;;;5014108;28;20837;-79
2021/01/08 01:57:35;;;;;;;1.70;1.60;;;2.50;98.20;;;;;;5012216;28;20465;-78
2021/01/08 02:00:02;;;;;;;1.70;1.50;;;2.50;98.20;;;;;;5013952;28;20480;-78
2021/01/08 02:02:34;;;;;;;1.70;1.50;;;2.50;98.20;;;;;;5004060;28;21314;-77
2021/01/08 02:05:05;;;;;;;1.70;1.50;;;2.50;98.20;;;;;;5011884;28;20476;-78
2021/01/08 02:07:34;;;;;;;1.60;1.50;;;2.50;98.20;;;;;;5013731;28;20463;-77
2021/01/08 02:10:04;;;;;;;1.63;1.40;;;2.50;98.20;;;;;;5010625;28;20856;-77
2021/01/08 02:12:31;;;;;;;1.60;1.40;;;2.40;98.20;;;;;;5009183;28;20500;-78
2021/01/08 02:15:00;;;;;;;1.70;1.50;;;2.40;98.20;;;;;;5013840;28;20480;-78
2021/01/08 02:17:28;;;;;;;1.60;1.40;;;2.40;98.20;;;;;;5010731;28;20463;-80
2021/01/08 02:20:01;;;;;;;1.70;1.50;;;2.40;98.20;;;;;;5022173;28;20505;-77
2021/01/08 02:22:31;;;;;;;1.70;1.50;;;2.40;98.20;;;;;;5015090;28;20465;-78
2021/01/08 02:25:21;;;;;;;1.70;1.50;;;2.40;98.20;;;;;;5013695;28;20523;-77
2021/01/08 02:28:16;;;;;;;1.70;1.60;;;2.40;98.20;;;;;;5005266;28;20469;-76
2021/01/08 02:30:44;;;;;;;1.60;1.40;;;2.40;98.20;;;;;;5011883;28;20706;-77
2021/01/08 02:33:11;;;;;;;1.63;1.50;;;2.40;98.20;;;;;;5014000;28;20472;-77
2021/01/08 02:35:38;;;;;;;1.63;1.40;;;2.40;98.20;;;;;;5011670;28;20583;-79
2021/01/08 02:38:06;;;;;;;1.60;1.50;;;2.40;98.20;;;;;;5008278;28;20461;-79
2021/01/08 02:40:33;;;;;;;1.67;1.40;;;2.40;98.20;;;;;;5011785;28;21077;-76
2021/01/08 02:43:02;;;;;;;1.70;1.60;;;2.40;98.20;;;;;;5012769;28;20538;-78
2021/01/08 02:45:29;;;;;;;1.63;1.40;;;2.40;98.20;;;;;;5012115;28;20480;-79
2021/01/08 02:47:55;;;;;;;1.70;1.60;;;2.40;98.20;;;;;;5006585;28;20509;-78
2021/01/08 02:50:22;;;;;;;1.83;1.73;;;2.40;98.20;;;;;;5010997;28;20489;-78
2021/01/08 02:52:57;;;;;;;1.70;1.47;;;2.40;98.20;;;;;;5008332;28;20492;-79
2021/01/08 02:55:30;;;;;;;1.70;1.50;;;2.40;98.20;;;;;;5010929;28;20480;-76
2021/01/08 02:57:59;;;;;;;2.87;2.60;;;2.40;98.20;;;;;;5012518;28;20469;-77
2021/01/08 03:00:28;;;;;;;1.63;1.50;;;2.40;98.20;;;;;;5011026;28;20465;-76
2021/01/08 03:02:56;;;;;;;1.80;1.70;;;2.40;98.20;;;;;;5008824;28;20493;-77
2021/01/08 03:05:23;;;;;;;1.60;1.50;;;2.40;98.20;;;;;;5009916;28;21015;-77
2021/01/08 03:07:50;;;;;;;1.60;1.40;;;2.40;98.20;;;;;;5012161;28;20468;-77
2021/01/08 03:10:18;;;;;;;1.67;1.50;;;2.40;98.20;;;;;;5010210;28;20484;-79
2021/01/08 03:12:54;;;;;;;1.60;1.50;;;2.40;98.20;;;;;;5010275;28;20460;-78
2021/01/08 03:15:22;;;;;;;1.67;1.47;;;2.40;98.20;;;;;;5012485;28;20480;-78
2021/01/08 03:17:48;;;;;;;1.60;1.40;;;2.40;98.20;;;;;;5010704;28;21000;-76
2021/01/08 03:20:15;;;;;;;1.60;1.40;;;2.40;98.20;;;;;;5018966;28;20465;-77
2021/01/08 03:22:41;;;;;;;1.70;1.60;;;2.40;98.20;;;;;;5012535;28;20519;-79
2021/01/08 03:25:09;;;;;;;1.70;1.50;;;2.40;98.20;;;;;;5013875;28;20568;-78
2021/01/08 03:27:35;;;;;;;1.70;1.50;;;2.40;98.20;;;;;;5009067;28;20488;-78
2021/01/08 03:30:03;;;;;;;1.70;1.50;;;2.40;98.20;;;;;;5012473;28;20900;-76
2021/01/08 03:32:30;;;;;;;1.67;1.50;;;2.40;98.20;;;;;;5012076;28;20465;-79
2021/01/08 03:34:57;;;;;;;1.70;1.50;;;2.40;98.20;;;;;;5012674;28;20583;-77
2021/01/08 03:37:23;;;;;;;1.70;1.50;;;2.40;98.20;;;;;;5010829;28;20461;-78
2021/01/08 03:39:50;;;;;;;1.63;1.50;;;2.40;98.20;;;;;;5009214;28;20980;-78
2021/01/08 03:42:16;;;;;;;1.70;1.50;;;2.40;98.20;;;;;;5011452;28;20583;-77
2021/01/08 03:44:43;;;;;;;1.70;1.60;;;2.40;98.20;;;;;;5009291;28;20995;-78
2021/01/08 03:47:09;;;;;;;1.67;1.50;;;2.50;98.20;;;;;;5013437;28;20539;-77
2021/01/08 03:49:38;;;;;;;1.67;1.50;;;2.40;98.20;;;;;;5010616;28;20484;-77
2021/01/08 03:52:05;;;;;;;1.70;1.60;;;2.50;98.20;;;;;;5010382;28;20565;-78
2021/01/08 03:54:32;;;;;;;1.60;1.43;;;2.40;98.20;;;;;;5008528;28;20498;-77
2021/01/08 03:56:59;;;;;;;1.70;1.53;;;2.40;98.20;;;;;;5008476;28;20514;-77
2021/01/08 03:59:25;;;;;;;1.70;1.50;;;2.40;98.20;;;;;;5010630;28;20542;-78
2021/01/08 04:01:52;;;;;;;1.70;1.50;;;2.50;98.20;;;;;;5006426;28;21000;-77
2021/01/08 04:04:19;;;;;;;1.70;1.60;;;2.40;98.20;;;;;;5011438;28;20476;-79
2021/01/08 04:06:46;;;;;;;1.60;1.50;;;2.40;98.20;;;;;;5003626;28;20911;-79
2021/01/08 04:09:13;;;;;;;2.73;2.53;;;2.40;98.20;;;;;;5010285;28;20527;-78
2021/01/08 04:11:40;;;;;;;1.67;1.40;;;2.40;98.20;;;;;;5004120;28;20457;-77
2021/01/08 04:14:06;;;;;;;1.60;1.40;;;2.40;98.20;;;;;;5009588;28;20555;-78
2021/01/08 04:16:33;;;;;;;1.70;1.47;;;2.40;98.20;;;;;;5011666;28;20514;-77
2021/01/08 04:19:00;;;;;;;1.67;1.40;;;2.40;98.20;;;;;;5012765;28;20468;-78
2021/01/08 04:21:26;;;;;;;1.70;1.40;;;2.40;98.20;;;;;;5017819;28;20488;-77
2021/01/08 04:23:56;;;;;;;1.67;1.40;;;2.40;98.20;;;;;;5010677;28;20465;-79
2021/01/08 04:26:23;;;;;;;1.70;1.60;;;2.40;98.20;;;;;;5006656;28;20485;-76
2021/01/08 04:28:49;;;;;;;1.67;1.47;;;2.40;98.20;;;;;;5010438;28;20860;-78
2021/01/08 04:31:16;;;;;;;1.70;1.50;;;2.40;98.20;;;;;;5010824;28;20493;-76
2021/01/08 04:33:43;;;;;;;1.60;1.40;;;2.40;98.20;;;;;;5012453;28;20468;-76
2021/01/08 04:36:10;;;;;;;1.60;1.40;;;2.40;98.20;;;;;;5010578;28;20480;-77
2021/01/08 04:38:37;;;;;;;1.70;1.57;;;2.40;98.20;;;;;;5011509;28;20976;-78
2021/01/08 04:41:06;;;;;;;1.70;1.50;;;2.40;98.20;;;;;;5011165;28;20453;-77
2021/01/08 04:43:33;;;;;;;1.70;1.50;;;2.40;98.20;;;;;;5013756;28;20473;-79
2021/01/08 04:46:07;;;;;;;1.63;1.47;;;2.40;98.20;;;;;;5014005;28;20495;-77
2021/01/08 04:48:34;;;;;;;1.67;1.50;;;2.40;98.20;;;;;;5008944;28;20523;-78
2021/01/08 04:51:04;;;;;;;1.70;1.50;;;2.40;98.20;;;;;;5016118;28;20572;-77
2021/01/08 04:53:31;;;;;;;1.60;1.40;;;2.40;98.20;;;;;;5006503;28;20514;-77
2021/01/08 04:56:02;;;;;;;1.67;1.40;;;2.40;98.20;;;;;;5008144;28;20536;-78
2021/01/08 04:58:32;;;;;;;1.70;1.60;;;2.40;98.20;;;;;;5009368;28;20463;-78
2021/01/08 05:01:00;;;;;;;1.70;1.50;;;2.40;98.20;;;;;;5009987;28;20853;-79
2021/01/08 05:03:27;;;;;;;1.70;1.60;;;2.30;98.20;;;;;;5008828;28;20835;-77
2021/01/08 05:05:53;;;;;;;1.70;1.53;;;2.30;98.20;;;;;;5008487;28;20485;-78
2021/01/08 05:08:20;;;;;;;1.67;1.50;;;2.30;98.20;;;;;;5012401;28;20992;-76
2021/01/08 05:10:46;;;;;;;1.60;1.40;;;2.30;98.20;;;;;;5010196;28;20484;-77
2021/01/08 05:13:13;;;;;;;1.70;1.60;;;2.30;98.20;;;;;;5011213;28;20972;-78
2021/01/08 05:15:41;;;;;;;1.60;1.50;;;2.30;98.20;;;;;;5007372;28;20476;-77
2021/01/08 05:18:07;;;;;;;1.70;1.60;;;2.30;98.20;;;;;;5013008;28;20483;-82
2021/01/08 05:20:34;;;;;;;1.70;1.50;;;2.30;98.20;;;;;;5014114;28;20461;-78
2021/01/08 05:23:01;;;;;;;1.63;1.40;;;2.30;98.20;;;;;;5013237;28;20472;-76
2021/01/08 05:25:28;;;;;;;1.60;1.50;;;2.30;98.20;;;;;;5009712;28;20480;-79
2021/01/08 05:27:55;;;;;;;1.60;1.40;;;2.30;98.20;;;;;;5012502;28;20464;-79
2021/01/08 05:30:27;;;;;;;1.70;1.50;;;2.30;98.20;;;;;;5012433;28;20553;-79
2021/01/08 05:32:59;;;;;;;1.70;1.60;;;2.30;98.20;;;;;;5008576;28;20473;-78
2021/01/08 05:35:27;;;;;;;1.70;1.50;;;2.30;98.20;;;;;;5012572;28;20554;-78
2021/01/08 05:37:54;;;;;;;1.67;1.50;;;2.30;98.20;;;;;;5010243;28;20499;-79
2021/01/08 05:40:25;;;;;;;1.60;1.50;;;2.20;98.20;;;;;;5010793;28;20467;-78
2021/01/08 05:42:56;;;;;;;1.63;1.40;;;2.30;98.20;;;;;;5009178;28;20464;-80
2021/01/08 05:45:23;;;;;;;1.67;1.40;;;2.20;98.20;;;;;;5012314;28;20503;-79
2021/01/08 05:47:51;;;;;;;1.60;1.40;;;2.20;98.20;;;;;;5009680;28;20503;-79
2021/01/08 05:50:21;;;;;;;1.70;1.60;;;2.20;98.20;;;;;;5023174;28;20488;-77
2021/01/08 05:52:51;;;;;;;1.63;1.40;;;2.20;98.20;;;;;;5009703;28;20464;-78
2021/01/08 05:55:18;;;;;;;1.70;1.50;;;2.20;98.20;;;;;;5011385;28;20496;-79
2021/01/08 05:57:44;;;;;;;1.70;1.50;;;2.20;98.20;;;;;;5010981;28;20467;-76
2021/01/08 06:00:11;;;;;;;1.60;1.40;;;2.20;98.20;;;;;;5010719;28;20538;-79
2021/01/08 06:02:39;;;;;;;1.70;1.60;;;2.20;98.20;;;;;;5013743;28;20527;-78
2021/01/08 06:05:06;;;;;;;1.63;1.50;;;2.20;98.20;;;;;;5005905;28;20553;-77
2021/01/08 06:07:38;;;;;;;1.67;1.43;;;2.20;98.20;;;;;;5013412;28;20968;-77
2021/01/08 06:10:07;;;;;;;1.73;1.63;;;2.20;98.20;;;;;;5013658;28;20491;-76
2021/01/08 06:12:39;;;;;;;1.70;1.60;;;2.20;98.20;;;;;;5012895;28;20808;-76
2021/01/08 06:15:09;;;;;;;1.70;1.60;;;2.20;98.20;;;;;;5009213;28;20519;-78
2021/01/08 06:17:37;;;;;;;1.63;1.40;;;2.20;98.20;;;;;;5015263;28;20491;-77
2021/01/08 06:20:06;;;;;;;1.60;1.50;;;2.20;98.20;;;;;;5014180;28;20963;-77
2021/01/08 06:22:38;;;;;;;1.63;1.40;;;2.20;98.20;;;;;;5012209;28;20477;-77
2021/01/08 06:25:06;;;;;;;1.70;1.60;;;2.20;98.20;;;;;;5012121;28;20508;-76
2021/01/08 06:27:34;;;;;;;1.70;1.50;;;2.20;98.20;;;;;;5010065;28;20467;-76
2021/01/08 06:30:03;;;;;;;1.60;1.40;;;2.20;98.20;;;;;;5008560;28;20508;-78
2021/01/08 06:32:31;;;;;;;1.67;1.53;;;2.20;98.20;;;;;;5011877;28;20488;-77
2021/01/08 06:35:05;;;;;;;1.70;1.60;;;2.20;98.20;;;;;;5008616;28;20586;-77
2021/01/08 06:37:41;;;;;;;1.70;1.60;;;2.20;98.20;;;;;;5013679;28;20987;-76
2021/01/08 06:40:10;;;;;;;1.70;1.50;;;2.20;98.20;;;;;;5006942;28;21168;-76
2021/01/08 06:42:44;;;;;;;1.70;1.50;;;2.20;98.20;;;;;;5010961;28;20468;-76
2021/01/08 06:45:16;;;;;;;1.80;1.70;;;2.20;98.20;;;;;;5011468;28;21035;-78
2021/01/08 06:47:45;;;;;;;1.70;1.50;;;2.20;98.20;;;;;;5016921;28;20456;-77
2021/01/08 06:50:19;;;;;;;1.60;1.40;;;2.20;98.20;;;;;;5020698;28;20488;-77
2021/01/08 06:52:48;;;;;;;1.60;1.50;;;2.20;98.20;;;;;;5011100;28;20473;-78
2021/01/08 06:55:22;;;;;;;1.63;1.50;;;2.20;98.20;;;;;;5015474;28;20476;-78
2021/01/08 06:57:52;;;;;;;1.70;1.60;;;2.20;98.20;;;;;;5012632;28;20495;-78
2021/01/08 07:00:22;;;;;;;1.67;1.40;;;2.20;98.20;;;;;;5009495;28;20468;-77
2021/01/08 07:02:56;;;;;;;1.70;1.50;;;2.20;98.20;;;;;;5006749;28;20503;-77
2021/01/08 07:05:24;;;;;;;1.80;1.70;;;2.20;98.20;;;;;;5012753;28;20503;-76
2021/01/08 07:07:54;;;;;;;1.63;1.40;;;2.20;98.20;;;;;;5013803;28;20531;-77
2021/01/08 07:10:20;;;;;;;1.67;1.50;;;2.20;98.20;;;;;;5011994;28;20523;-78
2021/01/08 07:12:52;;;;;;;1.63;1.40;;;2.20;98.20;;;;;;5009887;28;20484;-77
2021/01/08 07:15:20;;;;;;;1.70;1.60;;;2.20;98.20;;;;;;5009884;28;20485;-77
2021/01/08 07:17:52;;;;;;;1.70;1.50;;;2.10;98.20;;;;;;5011120;28;20875;-78
2021/01/08 07:20:21;;;;;;;1.70;1.50;;;2.10;98.20;;;;;;5018644;28;21057;-77
2021/01/08 07:22:53;;;;;;;1.70;1.53;;;2.10;98.20;;;;;;5010519;28;20528;-77
2021/01/08 07:25:23;;;;;;;1.70;1.60;;;2.10;98.20;;;;;;5007878;28;20539;-76
2021/01/08 07:27:51;;;;;;;1.63;1.50;;;2.10;98.20;;;;;;5010989;28;20503;-76
2021/01/08 07:30:19;;;;;;;1.63;1.40;;;2.10;98.20;;;;;;5010903;28;20493;-78
2021/01/08 07:32:47;;;;;;;1.67;1.47;;;2.10;98.20;;;;;;5008409;28;20464;-77
2021/01/08 07:35:22;;;;;;;1.63;1.50;;;2.10;98.20;;;;;;5009173;28;20579;-76
2021/01/08 07:38:01;;;;;;;1.60;1.40;;;2.10;98.20;;;;;;5006677;28;20970;-76
2021/01/08 07:40:29;;;;;;;1.70;1.50;;;2.10;98.20;;;;;;5011026;28;20493;-79
2021/01/08 07:42:57;;;;;;;1.70;1.50;;;2.10;98.20;;;;;;5007559;28;20468;-76
2021/01/08 07:45:23;;;;;;;1.70;1.50;;;2.10;98.20;;;;;;5012093;28;20488;-77
2021/01/08 07:47:50;;;;;;;1.67;1.50;;;2.10;98.20;;;;;;5015126;28;20472;-76
2021/01/08 07:50:17;;;;;;;1.67;1.50;;;2.10;98.20;;;;;;5018520;28;21182;-77
2021/01/08 07:52:45;;;;;;;1.70;1.60;;;2.10;98.20;;;;;;5012468;28;20465;-77
2021/01/08 07:55:14;;;;;;;1.70;1.60;;;2.10;98.20;;;;;;5013114;28;20496;-76
2021/01/08 07:58:03;;;;;;;1.60;1.43;;;2.10;98.20;;;;;;5011646;28;20467;-76
2021/01/08 08:00:31;;;;;;;1.70;1.60;;;2.10;98.20;;;;;;5022317;22;20459;-76
2021/01/08 08:02:59;;;;;;;1.70;1.50;;;2.10;98.20;;;;;;5002937;23;21090;-76
2021/01/08 08:05:27;;;;;;;1.67;1.50;;;2.10;98.20;;;;;;4984742;28;21134;-76
2021/01/08 08:07:57;;;;;;;1.63;1.50;;;2.10;98.20;;;;;;4990176;28;20810;-76
2021/01/08 08:10:25;;;;;;;1.70;1.50;;;2.10;98.20;;;;;;4985997;28;20591;-76
2021/01/08 08:12:52;;;;;;;1.70;1.50;;;2.10;98.20;;;;;;4988524;28;20562;-76
2021/01/08 08:15:19;;;;;;;1.60;1.47;;;2.10;98.20;;;;;;4989170;28;20486;-77
2021/01/08 08:17:46;;;;;;;1.67;1.50;;;2.10;98.20;;;;;;4989120;28;20469;-75
2021/01/08 08:20:20;;;;;;;1.60;1.40;;;2.10;98.20;;;;;;4996010;28;20461;-76
2021/01/08 08:22:47;;;;;;;1.70;1.50;;;2.10;98.20;;;;;;4988652;28;20501;-76
2021/01/08 08:25:29;;;;;;;1.80;1.70;;;2.10;98.20;;;;;;4989331;28;21063;-76
2021/01/08 08:27:57;;;;;;;1.70;1.50;;;2.10;98.20;;;;;;4985471;28;20466;-76
2021/01/08 08:30:24;;;;;;;1.70;1.50;;;2.20;98.20;;;;;;4989476;28;20547;-77
2021/01/08 08:32:52;;;;;;;1.63;1.40;;;2.20;98.20;;;;;;4981712;28;20493;-78
2021/01/08 08:35:19;;;;;;;1.67;1.50;;;2.20;98.20;;;;;;4983430;28;20927;-77
2021/01/08 08:37:47;;;;;;;1.67;1.40;;;2.20;98.20;;;;;;4987815;28;20484;-77
2021/01/08 08:40:14;;;;;;;1.63;1.40;;;2.20;98.20;;;;;;4985325;28;20458;-77
2021/01/08 08:42:42;;;;;;;1.70;1.50;;;2.20;98.20;;;;;;4990496;28;20481;-77
2021/01/08 08:45:23;;;;;;;1.63;1.47;;;2.30;98.20;;;;;;4985884;28;20596;-75
2021/01/08 08:47:51;;;;;;;1.67;1.50;;;2.30;98.20;;;;;;5007196;23;20567;-76
2021/01/08 08:50:18;;;;;;;1.63;1.40;;;2.30;98.20;;;;;;5008232;28;20494;-76
2021/01/08 08:52:45;;;;;;;1.70;1.60;;;2.30;98.20;;;;;;5009579;28;20503;-75
2021/01/08 08:55:30;;;;;;;1.70;1.50;;;2.40;98.20;;;;;;4999998;28;20520;-76
2021/01/08 08:58:03;;;;;;;1.67;1.50;;;2.50;98.20;;;;;;5000532;28;20497;-77
2021/01/08 09:00:30;;;;;;;1.70;1.50;;;2.50;98.20;;;;;;5035823;23;20987;-76
2021/01/08 09:02:57;;;;;;;1.67;1.50;;;2.60;98.20;;;;;;5006381;28;20456;-76
2021/01/08 09:05:30;;;;;;;1.63;1.40;;;2.60;98.20;;;;;;5004887;28;20924;-77
2021/01/08 09:08:03;;;;;;;1.70;1.50;;;2.70;98.20;;;;;;5008722;28;20464;-76
2021/01/08 09:10:33;;;;;;;1.70;1.40;;;2.70;98.20;;;;;;5001408;28;20963;-75
2021/01/08 09:13:11;;;;;;;1.67;1.40;;;2.80;98.20;;;;;;5007053;28;20460;-77
2021/01/08 09:15:46;;;;;;;1.70;1.60;;;2.80;98.20;;;;;;5004452;28;20499;-78
2021/01/08 09:18:19;;;;;;;1.67;1.40;;;2.80;98.20;;;;;;5000654;28;20478;-78
2021/01/08 09:20:59;;;;;;;1.63;1.50;;;2.90;98.20;;;;;;5013355;28;20498;-76
2021/01/08 09:23:28;;;;;;;1.63;1.40;;;2.90;98.20;;;;;;5024530;23;20546;-75
2021/01/08 09:25:58;;;;;;;1.70;1.40;;;2.90;98.20;;;;;;5002750;28;20491;-77
2021/01/08 09:28:26;;;;;;;1.70;1.60;;;3.00;98.20;;;;;;5003637;28;20488;-77
2021/01/08 09:30:54;;;;;;;1.70;1.40;;;3.00;98.20;;;;;;5004675;28;20493;-76
2021/01/08 09:33:20;;;;;;;1.60;1.30;;;3.00;98.20;;;;;;5004692;28;20479;-76
2021/01/08 09:35:46;;;;;;;1.60;1.40;;;3.00;98.20;;;;;;5003091;28;21172;-75
2021/01/08 09:38:14;;;;;;;1.67;1.40;;;3.10;98.20;;;;;;5000972;28;20469;-77
2021/01/08 09:40:42;;;;;;;1.60;1.37;;;3.10;98.20;;;;;;5009540;28;20555;-78
2021/01/08 09:43:16;;;;;;;1.60;1.30;;;3.10;98.20;;;;;;5007651;28;20576;-78
2021/01/08 09:45:44;;;;;;;1.60;1.40;;;3.10;98.20;;;;;;5009589;28;20488;-77
2021/01/08 09:48:23;;;;;;;1.60;1.40;;;3.20;98.20;;;;;;5010366;28;20464;-77
2021/01/08 09:51:01;;;;;;;1.63;1.30;;;3.30;98.20;;;;;;5010736;28;20899;-77
2021/01/08 09:53:27;;;;;;;1.67;1.40;;;3.40;98.20;;;;;;5006880;28;20522;-75
2021/01/08 09:55:53;;;;;;;1.70;1.60;;;3.40;98.20;;;;;;5009207;28;20507;-75
2021/01/08 09:58:20;;;;;;;1.70;1.40;;;3.50;98.20;;;;;;5022590;28;20500;-76
2021/01/08 10:00:51;;;;;;;1.70;1.40;;;3.50;98.20;;;;;;5012651;28;20515;-77
2021/01/08 10:03:18;;;;;;;1.70;1.40;;;3.50;98.20;;;;;;5006712;28;20465;-77
2021/01/08 10:05:45;;;;;;;1.60;1.40;;;3.60;98.20;;;;;;5006232;28;20512;-76
2021/01/08 10:08:20;;;;;;;1.67;1.40;;;3.60;98.20;;;;;;5014219;28;20518;-75
2021/01/08 10:10:47;;;;;;;1.70;1.40;;;3.70;98.20;;;;;;5007689;28;20480;-76
2021/01/08 10:13:16;;;;;;;1.70;1.50;;;3.70;98.20;;;;;;5008723;28;20518;-76
2021/01/08 10:15:43;;;;;;;1.60;1.40;;;3.70;98.20;;;;;;5004475;28;20600;-76
2021/01/08 10:18:12;;;;;;;1.67;1.40;;;3.70;98.20;;;;;;5010440;28;20472;-77
2021/01/08 10:20:44;;;;;;;1.67;1.47;;;3.70;98.20;;;;;;5009468;28;20499;-76
2021/01/08 10:23:12;;;;;;;1.70;1.40;;;3.70;98.20;;;;;;5006400;28;20476;-77
2021/01/08 10:25:38;;;;;;;1.67;1.40;;;3.80;98.20;;;;;;5003001;28;20484;-76
2021/01/08 10:28:13;;;;;;;1.70;1.50;;;3.80;98.20;;;;;;5017472;28;20460;-76
2021/01/08 10:30:40;;;;;;;1.60;1.30;;;3.80;98.20;;;;;;5006668;28;20488;-78
2021/01/08 10:33:07;;;;;;;1.60;1.30;;;3.80;98.20;;;;;;5006010;28;20518;-78
2021/01/08 10:35:35;;;;;;;1.70;1.40;;;3.80;98.20;;;;;;5005366;28;20571;-78
2021/01/08 10:38:02;;;;;;;1.63;1.40;;;3.80;98.20;;;;;;5017660;28;20557;-78
2021/01/08 10:40:29;;;;;;;1.67;1.40;;;3.90;98.20;;;;;;5007905;28;20607;-78
2021/01/08 10:42:55;;;;;;;1.70;1.40;;;3.90;98.20;;;;;;5003420;28;20464;-77
2021/01/08 10:45:23;;;;;;;1.60;1.30;;;3.90;98.20;;;;;;5008670;28;20484;-77
2021/01/08 10:47:49;;;;;;;1.60;1.30;;;4.00;98.20;;;;;;5010434;28;20464;-77
2021/01/08 10:50:16;;;;;;;1.70;1.50;;;3.90;98.20;;;;;;5012637;28;20515;-77
2021/01/08 10:52:44;;;;;;;1.67;1.33;;;3.90;98.20;;;;;;5011439;28;20469;-76
2021/01/08 10:55:11;;;;;;;1.70;1.53;;;3.90;98.20;;;;;;5006933;28;20536;-78
2021/01/08 10:57:38;;;;;;;1.60;1.30;;;3.90;98.20;;;;;;5004774;28;21313;-77
2021/01/08 11:00:08;;;;;;;1.70;1.40;;;3.90;98.20;;;;;;5003037;28;20530;-77
2021/01/08 11:02:37;;;;;;;1.60;1.30;;;3.90;98.20;;;;;;5026962;23;20524;-77
2021/01/08 11:05:05;;;;;;;1.70;1.50;;;4.00;98.20;;;;;;5016314;28;20548;-77
2021/01/08 11:07:33;;;;;;;1.60;1.30;;;4.00;98.20;;;;;;5006960;28;20499;-76
2021/01/08 11:10:01;;;;;;;1.60;1.30;;;4.00;98.20;;;;;;5008942;28;20493;-76
2021/01/08 11:12:27;;;;;;;1.60;1.33;;;4.00;98.20;;;;;;5006356;28;20471;-77
2021/01/08 11:14:54;;;;;;;1.70;1.50;;;4.00;98.20;;;;;;5009320;28;20551;-76
2021/01/08 11:17:21;;;;;;;1.70;1.50;;;4.00;98.20;;;;;;5009473;28;20477;-77
2021/01/08 11:19:49;;;;;;;1.67;1.40;;;4.10;98.20;;;;;;5007742;28;20495;-77
2021/01/08 11:22:16;;;;;;;1.70;1.50;;;4.10;98.20;;;;;;5010107;28;20476;-78
2021/01/08 11:24:42;;;;;;;1.63;1.30;;;4.10;98.20;;;;;;5005909;28;20480;-78
2021/01/08 11:27:10;;;;;;;1.60;1.30;;;4.10;98.20;;;;;;5013631;28;20472;-76
2021/01/08 11:29:36;;;;;;;1.70;1.40;;;4.00;98.20;;;;;;5010883;28;20484;-77
2021/01/08 11:32:07;;;;;;;1.70;1.40;;;4.10;98.20;;;;;;5009200;28;20487;-77
2021/01/08 11:34:34;;;;;;;1.60;1.30;;;4.10;98.20;;;;;;5005072;28;20485;-78
2021/01/08 11:37:00;;;;;;;1.60;1.33;;;4.10;98.20;;;;;;5015342;28;20692;-76
2021/01/08 11:39:27;;;;;;;1.67;1.40;;;4.10;98.20;;;;;;5001488;28;20473;-78
2021/01/08 11:41:55;;;;;;;1.70;1.50;;;4.10;98.20;;;;;;5005133;28;20503;-76
2021/01/08 11:44:23;;;;;;;1.60;1.40;;;4.10;98.20;;;;;;5004087;28;20841;-77
2021/01/08 11:46:50;;;;;;;1.70;1.50;;;4.20;98.20;;;;;;5007704;28;20469;-76
2021/01/08 11:49:16;;;;;;;1.63;1.40;;;4.20;98.20;;;;;;5007705;28;21209;-78
2021/01/08 11:51:43;;;;;;;1.60;1.30;;;4.20;98.20;;;;;;5011729;28;20500;-76
2021/01/08 11:54:10;;;;;;;1.70;1.50;;;4.20;98.20;;;;;;5005401;28;20522;-76
2021/01/08 11:56:36;;;;;;;1.70;1.40;;;4.20;98.20;;;;;;5005887;28;20475;-75
2021/01/08 11:59:03;;;;;;;1.60;1.30;;;4.20;98.20;;;;;;5012856;28;20471;-76
2021/01/08 12:01:32;;;;;;;1.60;1.30;;;4.20;98.20;;;;;;5002914;28;20466;-77
2021/01/08 12:04:00;;;;;;;1.67;1.40;;;4.20;98.20;;;;;;5011228;28;20482;-76
2021/01/08 12:06:28;;;;;;;1.70;1.40;;;4.20;98.20;;;;;;5000689;28;20468;-76
2021/01/08 12:08:56;;;;;;;1.60;1.30;;;4.20;98.20;;;;;;5014342;28;20567;-76
2021/01/08 12:11:23;;;;;;;1.70;1.50;;;4.20;98.20;;;;;;5003105;28;20491;-76
2021/01/08 12:13:51;;;;;;;1.70;1.50;;;4.20;98.20;;;;;;4998583;28;21028;-76
2021/01/08 12:16:24;;;;;;;1.60;1.30;;;4.30;98.20;;;;;;5001785;28;20994;-76
2021/01/08 12:18:51;;;;;;;1.60;1.30;;;4.30;98.20;;;;;;4997982;28;20472;-76
2021/01/08 12:21:18;;;;;;;1.70;1.30;;;4.30;98.20;;;;;;5003339;28;20463;-76
2021/01/08 12:23:45;;;;;;;1.60;1.30;;;4.30;98.20;;;;;;5003997;28;20472;-77
2021/01/08 12:26:16;;;;;;;1.67;1.43;;;4.40;98.20;;;;;;4997830;28;20492;-78
2021/01/08 12:28:42;;;;;;;1.63;1.30;;;4.40;98.20;;;;;;5011858;28;20467;-77
2021/01/08 12:31:09;;;;;;;1.70;1.40;;;4.40;98.20;;;;;;5004249;28;20496;-77
2021/01/08 12:33:36;;;;;;;1.63;1.30;;;4.40;98.20;;;;;;4998268;28;20465;-76
2021/01/08 12:36:04;;;;;;;1.67;1.40;;;4.40;98.20;;;;;;5001266;28;20516;-77
2021/01/08 12:38:30;;;;;;;1.70;1.40;;;4.40;98.20;;;;;;5007958;28;20554;-77
2021/01/08 12:40:58;;;;;;;1.70;1.40;;;4.40;98.20;;;;;;5013045;28;20488;-77
2021/01/08 12:43:24;;;;;;;1.60;1.40;;;4.40;98.20;;;;;;5005873;28;20852;-77
2021/01/08 12:45:51;;;;;;;1.60;1.40;;;4.30;98.20;;;;;;5010417;28;20962;-79
2021/01/08 12:48:18;;;;;;;1.63;1.40;;;4.30;98.20;;;;;;5009427;28;20884;-78
2021/01/08 12:50:45;;;;;;;1.60;1.30;;;4.30;98.20;;;;;;5008382;28;20496;-79
2021/01/08 12:53:12;;;;;;;1.67;1.37;;;4.20;98.20;;;;;;5006830;28;20592;-77
2021/01/08 12:55:39;;;;;;;1.70;1.40;;;4.20;98.20;;;;;;5007581;28;20476;-78
2021/01/08 12:58:08;;;;;;;1.67;1.40;;;4.10;98.20;;;;;;5012646;28;20474;-78
2021/01/08 13:00:35;;;;;;;1.63;1.30;;;4.10;98.20;;;;;;5006329;28;20473;-78
2021/01/08 13:03:01;;;;;;;1.60;1.40;;;4.10;98.20;;;;;;5002522;28;20475;-78
2021/01/08 13:05:28;;;;;;;1.70;1.47;;;4.10;98.20;;;;;;4999790;28;20487;-78